createdAt,value
2018-01-11T00:02:14.986Z,4.17
2018-01-11T00:07:17.524Z,3.73
2018-01-11T00:12:20.078Z,3.50
2018-01-11T00:17:23.345Z,4.23
2018-01-11T00:22:26.197Z,4.07
2018-01-11T00:27:30.233Z,4.40
2018-01-11T00:32:33.019Z,3.63
2018-01-11T00:37:35.550Z,3.90
2018-01-11T00:42:38.755Z,3.90
2018-01-11T00:47:41.272Z,3.70
2018-01-11T00:52:43.926Z,3.10
2018-01-11T00:57:46.438Z,3.30
2018-01-11T01:02:49.337Z,3.20
2018-01-11T01:07:51.970Z,4.00
2018-01-11T01:12:54.541Z,3.07
2018-01-11T01:17:58.162Z,3.17
2018-01-11T01:23:00.776Z,3.70
2018-01-11T01:28:04.145Z,3.37
2018-01-11T01:33:06.673Z,3.33
2018-01-11T01:38:09.482Z,3.80
2018-01-11T01:43:13.480Z,3.57
2018-01-11T01:48:16.059Z,2.90
2018-01-11T01:53:19.409Z,3.93
2018-01-11T01:58:21.945Z,3.17
2018-01-11T02:03:24.458Z,3.57
2018-01-11T02:08:27.003Z,2.83
2018-01-11T02:13:30.943Z,3.13
2018-01-11T02:18:33.473Z,3.10
2018-01-11T02:23:36.304Z,5.07
2018-01-11T02:28:38.848Z,4.50
2018-01-11T02:33:41.374Z,4.43
2018-01-11T02:38:44.467Z,4.10
2018-01-11T02:43:47.830Z,5.07
2018-01-11T02:48:50.360Z,4.03
2018-01-11T02:53:52.955Z,3.97
2018-01-11T02:58:56.378Z,4.30
2018-01-11T03:03:59.756Z,4.30
2018-01-11T03:09:02.319Z,3.90
2018-01-11T03:14:05.586Z,4.27
2018-01-11T03:19:08.510Z,3.80
2018-01-11T03:24:11.821Z,4.20
2018-01-11T03:29:14.521Z,5.10
2018-01-11T03:34:17.072Z,3.90
2018-01-11T03:39:20.733Z,4.13
2018-01-11T03:44:23.519Z,4.43
2018-01-11T03:49:26.374Z,4.30
2018-01-11T03:54:28.910Z,4.20
2018-01-11T03:59:32.204Z,4.00
2018-01-11T04:04:34.741Z,3.23
2018-01-11T04:09:37.326Z,3.73
2018-01-11T04:14:39.870Z,4.47
2018-01-11T04:19:42.413Z,4.20
2018-01-11T04:24:44.963Z,4.83
2018-01-11T04:29:47.518Z,4.60
2018-01-11T04:34:50.108Z,3.30
2018-01-11T04:39:52.602Z,3.70
2018-01-11T04:44:55.188Z,4.17
2018-01-11T04:49:57.791Z,3.90
2018-01-11T04:55:00.316Z,3.70
2018-01-11T05:00:03.051Z,3.77
2018-01-11T05:05:05.750Z,4.30
2018-01-11T05:10:08.340Z,4.03
2018-01-11T05:15:11.778Z,3.77
2018-01-11T05:20:14.310Z,4.13
2018-01-11T05:25:17.108Z,3.83
2018-01-11T05:30:19.751Z,4.13
2018-01-11T05:35:22.327Z,3.70
2018-01-11T05:40:25.663Z,3.80
2018-01-11T05:45:28.187Z,4.40
2018-01-11T05:50:31.912Z,3.87
2018-01-11T05:55:34.470Z,4.20
2018-01-11T06:00:37.123Z,3.83
2018-01-11T06:05:39.856Z,3.70
2018-01-11T06:10:42.761Z,3.93
2018-01-11T06:15:45.339Z,3.30
2018-01-11T06:20:48.323Z,3.70
2018-01-11T06:25:51.141Z,3.93
2018-01-11T06:30:54.226Z,3.90
2018-01-11T06:35:56.832Z,3.87
2018-01-11T06:40:59.861Z,3.23
2018-01-11T06:46:02.484Z,3.03
2018-01-11T06:51:05.036Z,3.67
2018-01-11T06:56:09.703Z,3.50
2018-01-11T07:01:12.258Z,3.43
2018-01-11T07:06:14.859Z,3.60
2018-01-11T07:11:17.442Z,3.33
2018-01-11T07:16:21.502Z,3.10
2018-01-11T07:21:24.811Z,3.00
2018-01-11T07:26:27.369Z,3.67
2018-01-11T07:31:30.707Z,3.37
2018-01-11T07:36:34.070Z,3.53
2018-01-11T07:41:36.628Z,3.23
2018-01-11T07:46:39.218Z,3.10
2018-01-11T07:51:42.556Z,3.30
2018-01-11T07:56:45.237Z,3.57
2018-01-11T08:01:48.161Z,3.20
2018-01-11T08:06:50.729Z,3.27
2018-01-11T08:11:54.120Z,3.40
2018-01-11T08:16:57.344Z,3.27
2018-01-11T08:22:00.044Z,3.27
2018-01-11T08:27:02.613Z,3.20
2018-01-11T08:32:05.353Z,3.83
2018-01-11T08:37:07.926Z,3.90
2018-01-11T08:42:11.333Z,4.03
2018-01-11T08:47:14.126Z,3.57
2018-01-11T08:52:16.824Z,3.70
2018-01-11T08:57:19.370Z,3.43
2018-01-11T09:02:23.612Z,3.70
2018-01-11T09:07:26.977Z,2.80
2018-01-11T09:12:30.302Z,3.57
2018-01-11T09:17:33.189Z,3.77
2018-01-11T09:22:35.774Z,3.37
2018-01-11T09:27:38.775Z,3.27
2018-01-11T09:32:44.043Z,3.73
2018-01-11T09:37:47.432Z,3.83
2018-01-11T09:42:50.073Z,4.03
2018-01-11T09:47:53.342Z,4.23
2018-01-11T09:52:56.064Z,3.90
2018-01-11T09:57:58.623Z,4.10
2018-01-11T10:03:02.386Z,3.70
2018-01-11T10:08:05.805Z,3.60
2018-01-11T10:13:08.466Z,3.73
2018-01-11T10:18:11.831Z,4.20
2018-01-11T10:23:14.519Z,4.03
2018-01-11T10:28:17.183Z,3.70
2018-01-11T10:33:19.760Z,3.87
2018-01-11T10:38:23.111Z,5.00
2018-01-11T10:43:25.679Z,3.53
2018-01-11T10:48:28.240Z,3.97
2018-01-11T10:53:31.230Z,4.47
2018-01-11T10:58:33.992Z,3.80
2018-01-11T11:03:37.674Z,4.67
2018-01-11T11:08:40.221Z,5.40
2018-01-11T11:13:42.785Z,5.00
2018-01-11T11:18:45.497Z,4.70
2018-01-11T11:23:49.144Z,4.83
2018-01-11T11:28:51.811Z,4.80
2018-01-11T11:33:54.397Z,4.53
2018-01-11T11:38:58.108Z,5.67
2018-01-11T11:44:01.204Z,4.77
2018-01-11T11:49:04.118Z,5.00
2018-01-11T11:54:07.261Z,4.70
2018-01-11T11:59:09.842Z,5.37
2018-01-11T12:04:12.842Z,4.47
2018-01-11T12:09:15.638Z,5.53
2018-01-11T12:14:19.224Z,4.87
2018-01-11T12:19:22.086Z,6.87
2018-01-11T12:24:24.750Z,5.47
2018-01-11T12:29:28.170Z,5.10
2018-01-11T12:34:30.861Z,6.50
2018-01-11T12:39:34.275Z,6.40
2018-01-11T12:44:37.593Z,8.83
2018-01-11T12:49:41.026Z,8.07
2018-01-11T12:54:44.612Z,7.20
2018-01-11T12:59:48.185Z,7.10
2018-01-11T13:04:50.824Z,7.53
2018-01-11T13:09:58.293Z,7.27
2018-01-11T13:15:01.783Z,7.43
2018-01-11T13:20:04.550Z,7.13
2018-01-11T13:25:07.673Z,6.20
2018-01-11T13:30:10.212Z,7.40
2018-01-11T13:35:12.816Z,7.00
2018-01-11T13:40:15.446Z,7.37
2018-01-11T13:45:19.851Z,6.70
2018-01-11T13:50:22.480Z,7.07
2018-01-11T13:55:26.701Z,7.40
2018-01-11T14:00:29.361Z,6.43
2018-01-11T14:05:31.906Z,6.03
2018-01-11T14:10:35.249Z,6.17
2018-01-11T14:15:37.987Z,6.10
2018-01-11T14:20:41.343Z,6.67
2018-01-11T14:25:44.942Z,5.60
2018-01-11T14:30:48.311Z,6.30
2018-01-11T14:35:50.909Z,6.33
2018-01-11T14:40:53.861Z,5.60
2018-01-11T14:45:56.929Z,5.83
2018-01-11T14:50:59.756Z,5.90
2018-01-11T14:56:03.015Z,5.70
2018-01-11T15:01:06.150Z,6.00
2018-01-11T15:06:08.875Z,5.70
2018-01-11T15:11:11.928Z,6.37
2018-01-11T15:16:14.829Z,5.50
2018-01-11T15:21:17.521Z,6.07
2018-01-11T15:26:20.078Z,5.80
2018-01-11T15:31:22.679Z,6.30
2018-01-11T15:36:26.315Z,5.97
2018-01-11T15:41:28.924Z,5.90
2018-01-11T15:46:31.525Z,6.07
2018-01-11T15:51:34.381Z,5.53
2018-01-11T15:56:38.159Z,6.60
2018-01-11T16:01:40.743Z,7.30
2018-01-11T16:06:43.307Z,6.83
2018-01-11T16:11:46.052Z,7.13
2018-01-11T16:16:48.603Z,7.03
2018-01-11T16:21:52.144Z,7.10
2018-01-11T16:26:54.923Z,6.00
2018-01-11T16:31:59.680Z,6.87
2018-01-11T16:37:02.757Z,5.90
2018-01-11T16:42:06.983Z,6.67
2018-01-11T16:47:09.982Z,14.60
2018-01-11T16:52:12.695Z,22.77
2018-01-11T16:57:15.466Z,24.80
2018-01-11T17:02:18.102Z,23.17
2018-01-11T17:07:21.098Z,20.70
2018-01-11T17:12:24.470Z,17.53
2018-01-11T17:17:27.731Z,18.43
2018-01-11T17:22:31.498Z,16.53
2018-01-11T17:27:34.111Z,15.60
2018-01-11T17:32:36.638Z,14.63
2018-01-11T17:37:39.215Z,13.40
2018-01-11T17:42:42.225Z,13.50
2018-01-11T17:47:44.819Z,13.00
2018-01-11T17:52:47.661Z,13.30
2018-01-11T17:57:50.236Z,12.27
2018-01-11T18:02:52.778Z,11.80
2018-01-11T18:07:55.710Z,11.80
2018-01-11T18:13:00.057Z,11.23
2018-01-11T18:18:03.389Z,11.17
2018-01-11T18:23:06.185Z,10.33
2018-01-11T18:28:08.771Z,10.20
2018-01-11T18:33:11.398Z,8.90
2018-01-11T18:38:14.194Z,9.30
2018-01-11T18:43:17.693Z,9.53
2018-01-11T18:48:20.613Z,9.23
2018-01-11T18:53:24.051Z,8.97
2018-01-11T18:58:29.361Z,8.77
2018-01-11T19:03:32.482Z,8.43
2018-01-11T19:08:35.083Z,8.73
2018-01-11T19:13:37.741Z,9.53
2018-01-11T19:18:41.144Z,8.70
2018-01-11T19:23:43.748Z,9.17
2018-01-11T19:28:47.083Z,8.70
2018-01-11T19:33:49.695Z,8.50
2018-01-11T19:38:52.317Z,9.07
2018-01-11T19:43:55.502Z,9.43
2018-01-11T19:48:58.085Z,9.23
2018-01-11T19:54:00.660Z,8.03
2018-01-11T19:59:03.390Z,8.77
2018-01-11T20:04:06.135Z,8.07
2018-01-11T20:09:09.761Z,8.20
2018-01-11T20:14:12.345Z,7.73
2018-01-11T20:19:14.918Z,7.93
2018-01-11T20:24:17.504Z,8.10
2018-01-11T20:29:20.196Z,9.70
2018-01-11T20:34:22.737Z,8.17
2018-01-11T20:39:25.340Z,7.87
2018-01-11T20:44:28.491Z,8.53
2018-01-11T20:49:31.480Z,7.43
2018-01-11T20:54:34.058Z,8.33
2018-01-11T20:59:39.097Z,7.43
2018-01-11T21:04:41.736Z,8.37
2018-01-11T21:09:44.437Z,7.70
2018-01-11T21:14:47.300Z,8.20
2018-01-11T21:19:50.027Z,8.90
2018-01-11T21:24:52.780Z,8.13
2018-01-11T21:29:55.731Z,8.27
2018-01-11T21:34:59.073Z,7.77
2018-01-11T21:40:01.599Z,7.50
2018-01-11T21:45:04.170Z,7.40
2018-01-11T21:50:06.799Z,6.93
2018-01-11T21:55:09.364Z,6.13
2018-01-11T22:00:11.928Z,5.80
2018-01-11T22:05:14.754Z,5.97
2018-01-11T22:10:17.316Z,6.10
2018-01-11T22:15:19.866Z,4.93
2018-01-11T22:20:23.191Z,5.80
2018-01-11T22:25:26.502Z,5.93
2018-01-11T22:30:30.038Z,7.20
2018-01-11T22:35:32.984Z,5.23
2018-01-11T22:40:35.639Z,5.30
2018-01-11T22:45:38.543Z,5.80
2018-01-11T22:50:41.128Z,6.00
2018-01-11T22:55:45.186Z,5.93
2018-01-11T23:00:47.846Z,6.20
2018-01-11T23:05:50.448Z,5.40
2018-01-11T23:10:53.688Z,5.30
2018-01-11T23:15:56.698Z,4.90
2018-01-11T23:21:00.180Z,5.47
2018-01-11T23:26:02.757Z,5.30
2018-01-11T23:31:06.126Z,5.57
2018-01-11T23:36:08.763Z,4.70
2018-01-11T23:41:12.280Z,4.80
2018-01-11T23:46:15.771Z,4.80
2018-01-11T23:51:18.395Z,5.03
2018-01-11T23:56:21.035Z,5.23
